Carmel, CA (93923)

6:26 AM PDT on June 22, 2017 (GMT -0700)
Palo Colorado Canyon | | Change Station

Elev 1456 ft 36.38 °N, 121.86 °W | Updated 2 days ago

Mostly Cloudy
Mostly Cloudy
81.4 °F
Feels Like 82 °F
N
1.0
Wind Variable Wind from NW
Gusts 1.0 mph

Today
High -- | Low -- °F
--% Chance of Precip.
Yesterday
High -- | Low -- °F
Precip. -- in
Pressure 29.74 in
Visibility 0.5 miles
Clouds Overcast 100 ft
Heat Index 82 °F
Dew Point 61.5 °F
Humidity 51%
Rainfall 0.00 in
Snow Depth Not available.
5:49 AM 8:29 PM
Waning Crescent, 4% visible
SPECI KMRY 221315Z 26003KT 1/2SM FG OVC001 11/11 A2974 RMK AO2 T01110111 RVRNO
Pressure 29.74 in
Visibility 0.5 miles
Clouds Overcast 100 ft
Heat Index 82 °F
Dew Point 61.5 °F
Humidity 51%
Rainfall 0.00 in
Snow Depth Not available.
5:49 AM 8:29 PM
Waning Crescent, 4% visible
SPECI KMRY 221315Z 26003KT 1/2SM FG OVC001 11/11 A2974 RMK AO2 T01110111 RVRNO

Get Severe Weather Alerts

Thanks for signing up!

Be on the lookout for a verification email in your inbox.

You'll start receiving the daily forecast at 6 AM.

×

10-Day Weather Forecast

Almanac

Astronomy

Jun. 22, 2017 Rise Set
Actual Time
Civil Twilight
Nautical Twilight
Astronomical Twilight
Moon
Length of Visible Light
Length of Day
Tomorrow will be .
, % of the Moon is Illuminated

Today's Extremes

State Highs State Lows

Community

WunderPhotos

Category 6

Welcome to Category 6. This is the collective home for Weather Underground's featured writeups by Dr. Jeff Masters (right), Bob Henson (left), Chris Burt, and other regular contributors.

Nearby

Air Quality

  Air Quality AQ Index Pollutant
Not available.

Snow Depth

Station Depth Elevation

Earthquake Activity

City Distance Mag. Time & Date
Minimum magnitude displayed is 2.5.

Coastal Water Temperatures

Place Temperature

Stations

Nearby Weather Stations

Station Location Temp. Windchill Dew Point Humidity Wind Precip. Elev Updated Type
                   

Watches & Warnings

There are currently no watches in effect.